Time;durP1;ratioP1;P1;durP2;ratioP2;P2;SDS_P1;SDS_P2;PMS_P1;PMS_P2;Temp;Humidity;BMP_temperature;BMP_pressure;BME280_temperature;BME280_humidity;BME280_pressure;Samples;Min_cycle;Max_cycle;Signal;HPM_P1;HPM_P2
2021/11/19 00:02:17;;;;;;;29.42;14.70;;;12.00;86.00;;;;;;5090419;28;20275;-74
2021/11/19 00:04:44;;;;;;;27.23;15.27;;;12.00;86.00;;;;;;5070992;28;20070;-74
2021/11/19 00:07:10;;;;;;;33.78;15.90;;;12.00;86.70;;;;;;5091237;28;20028;-74
2021/11/19 00:09:37;;;;;;;27.33;14.40;;;12.00;86.30;;;;;;5072547;28;20024;-73
2021/11/19 00:12:04;;;;;;;25.67;14.95;;;12.00;86.30;;;;;;5089865;28;20051;-74
2021/11/19 00:14:30;;;;;;;30.83;15.55;;;12.00;86.30;;;;;;5084863;28;20098;-69
2021/11/19 00:17:03;;;;;;;29.48;16.27;;;12.00;86.40;;;;;;5070305;28;20036;-69
2021/11/19 00:19:29;;;;;;;34.85;17.48;;;12.00;86.30;;;;;;5051655;28;20044;-69
2021/11/19 00:21:56;;;;;;;35.40;17.10;;;12.00;86.40;;;;;;5052542;28;20142;-69
2021/11/19 00:24:23;;;;;;;29.10;16.33;;;12.00;86.40;;;;;;5070351;28;20017;-69
2021/11/19 00:26:49;;;;;;;36.35;16.58;;;11.90;86.40;;;;;;5051421;28;20031;-69
2021/11/19 00:29:16;;;;;;;38.10;18.92;;;11.90;86.50;;;;;;5051449;28;20504;-69
2021/11/19 00:31:42;;;;;;;32.88;15.82;;;11.90;86.60;;;;;;5070181;28;20100;-68
2021/11/19 00:34:08;;;;;;;31.65;16.60;;;11.90;86.60;;;;;;5070206;28;20032;-69
2021/11/19 00:36:36;;;;;;;31.35;16.83;;;11.90;87.30;;;;;;5070142;28;20020;-69
2021/11/19 00:39:06;;;;;;;29.92;16.05;;;12.00;86.70;;;;;;5070051;28;20032;-68
2021/11/19 00:41:32;;;;;;;25.42;16.83;;;12.00;86.70;;;;;;5067782;28;20032;-69
2021/11/19 00:43:58;;;;;;;33.05;16.65;;;12.00;86.70;;;;;;5069520;28;20116;-69
2021/11/19 00:46:24;;;;;;;31.67;18.33;;;12.00;86.80;;;;;;5069687;28;20519;-69
2021/11/19 00:48:50;;;;;;;33.88;17.50;;;12.00;86.70;;;;;;5053254;28;20033;-69
2021/11/19 00:51:19;;;;;;;30.90;16.83;;;12.00;86.70;;;;;;5032491;28;20055;-68
2021/11/19 00:53:48;;;;;;;28.73;17.02;;;12.00;86.80;;;;;;5063336;28;20040;-69
2021/11/19 00:56:22;;;;;;;29.98;17.23;;;12.00;86.90;;;;;;5070685;28;20397;-73
2021/11/19 00:58:50;;;;;;;29.77;17.90;;;12.00;86.90;;;;;;5050544;28;20513;-73
2021/11/19 01:01:25;;;;;;;36.40;17.77;;;12.00;86.90;;;;;;5069373;28;20028;-73
2021/11/19 01:03:51;;;;;;;32.90;17.95;;;12.00;86.90;;;;;;5031900;28;20040;-73
2021/11/19 01:06:17;;;;;;;29.42;16.77;;;12.00;87.00;;;;;;5064001;28;20028;-73
2021/11/19 01:08:43;;;;;;;31.48;18.85;;;11.90;87.00;;;;;;5069345;28;20037;-73
2021/11/19 01:11:12;;;;;;;39.53;18.63;;;11.90;87.00;;;;;;5066877;28;20020;-74
2021/11/19 01:13:42;;;;;;;25.20;18.13;;;12.00;87.20;;;;;;5069036;28;20514;-73
2021/11/19 01:16:20;;;;;;;30.65;17.58;;;12.00;87.20;;;;;;5085020;28;20463;-74
2021/11/19 01:18:51;;;;;;;31.10;17.05;;;12.00;87.20;;;;;;5089185;28;20043;-73
2021/11/19 01:21:22;;;;;;;35.63;19.38;;;12.00;87.20;;;;;;5089607;28;20470;-73
2021/11/19 01:23:48;;;;;;;31.85;19.35;;;12.00;87.30;;;;;;5089589;28;20024;-73
2021/11/19 01:26:23;;;;;;;27.85;18.02;;;12.00;87.30;;;;;;5089725;28;20111;-68
2021/11/19 01:28:57;;;;;;;36.60;18.67;;;12.00;87.30;;;;;;5089156;28;20083;-68
2021/11/19 01:31:30;;;;;;;35.33;19.73;;;12.00;87.30;;;;;;5089060;28;20024;-68
2021/11/19 01:33:56;;;;;;;34.25;19.52;;;12.00;87.40;;;;;;5089078;28;20097;-70
2021/11/19 01:36:22;;;;;;;31.63;19.27;;;12.00;87.50;;;;;;5091299;28;20028;-73
2021/11/19 01:38:49;;;;;;;31.73;18.70;;;12.00;87.50;;;;;;5100169;28;20036;-73
2021/11/19 01:41:27;;;;;;;36.38;19.63;;;12.00;87.60;;;;;;5108061;28;20134;-75
2021/11/19 01:43:55;;;;;;;34.47;19.95;;;12.00;88.00;;;;;;5101314;28;20035;-73
2021/11/19 01:46:27;;;;;;;34.85;20.25;;;12.00;87.70;;;;;;5054712;28;20052;-73
2021/11/19 01:48:54;;;;;;;39.83;20.60;;;12.00;87.70;;;;;;5070951;28;20151;-72
2021/11/19 01:51:27;;;;;;;39.33;19.67;;;12.00;87.70;;;;;;5071523;28;20027;-72
2021/11/19 01:54:32;;;;;;;32.95;20.23;;;12.00;87.70;;;;;;5088639;28;20028;-73
2021/11/19 01:57:27;;;;;;;33.88;20.88;;;12.00;87.70;;;;;;5025332;28;20040;-73
2021/11/19 02:00:10;;;;;;;31.40;19.23;;;12.00;87.80;;;;;;5078325;28;20032;-73
2021/11/19 02:02:45;;;;;;;33.72;20.08;;;12.00;87.90;;;;;;5089519;28;20039;-73
2021/11/19 02:05:19;;;;;;;32.67;20.13;;;12.00;87.90;;;;;;5088715;28;20114;-73
2021/11/19 02:07:48;;;;;;;38.67;21.52;;;12.00;88.00;;;;;;5087808;28;20035;-73
2021/11/19 02:10:19;;;;;;;31.88;21.05;;;12.00;88.00;;;;;;5088639;28;20025;-74
2021/11/19 02:13:33;;;;;;;31.13;20.60;;;12.00;88.00;;;;;;5071235;28;20121;-73
2021/11/19 02:16:03;;;;;;;33.22;20.25;;;12.00;88.00;;;;;;4997287;28;20046;-73
2021/11/19 02:18:34;;;;;;;41.53;21.95;;;12.00;88.10;;;;;;5050909;28;20118;-74
2021/11/19 02:21:05;;;;;;;39.00;22.42;;;12.00;88.20;;;;;;5047076;28;20044;-74
2021/11/19 02:23:42;;;;;;;34.60;22.52;;;12.00;88.30;;;;;;5064267;28;20124;-74
2021/11/19 02:26:13;;;;;;;35.13;21.25;;;12.00;88.40;;;;;;5068409;28;20031;-73
2021/11/19 02:28:42;;;;;;;38.45;21.35;;;12.00;88.40;;;;;;5072610;28;20377;-74
2021/11/19 02:31:13;;;;;;;37.63;23.23;;;12.00;88.40;;;;;;5071037;28;20076;-73
2021/11/19 02:33:42;;;;;;;50.90;26.23;;;12.00;88.50;;;;;;5072824;28;20027;-74
2021/11/19 02:36:11;;;;;;;36.90;24.05;;;12.00;88.60;;;;;;5072161;28;20120;-73
2021/11/19 02:38:54;;;;;;;38.50;23.60;;;12.00;88.60;;;;;;5072070;28;20024;-74
2021/11/19 02:41:24;;;;;;;34.17;22.55;;;12.00;88.60;;;;;;5070535;28;20063;-74
2021/11/19 02:43:57;;;;;;;39.42;24.08;;;12.00;88.60;;;;;;5072077;28;20471;-73
2021/11/19 02:46:30;;;;;;;46.33;27.98;;;12.00;89.30;;;;;;5072227;28;20029;-73
2021/11/19 02:48:56;;;;;;;40.88;25.50;;;12.00;88.90;;;;;;5071931;28;20039;-73
2021/11/19 02:51:24;;;;;;;42.83;25.33;;;12.00;88.80;;;;;;5053862;28;20029;-70
2021/11/19 02:53:51;;;;;;;43.65;26.50;;;12.00;88.80;;;;;;5071738;28;20033;-69
2021/11/19 02:56:19;;;;;;;37.08;23.92;;;12.00;88.90;;;;;;5071884;28;20467;-69
2021/11/19 02:58:50;;;;;;;37.45;24.15;;;12.00;88.90;;;;;;5069131;28;20032;-69
2021/11/19 03:01:21;;;;;;;43.83;26.30;;;12.00;88.90;;;;;;5052190;28;20054;-69
2021/11/19 03:03:50;;;;;;;38.08;24.10;;;12.10;89.00;;;;;;5070305;28;20582;-73
2021/11/19 03:06:19;;;;;;;38.40;23.75;;;12.10;88.90;;;;;;5071837;28;20250;-73
2021/11/19 03:08:45;;;;;;;44.97;27.98;;;12.00;88.80;;;;;;5071333;28;20040;-73
2021/11/19 03:11:13;;;;;;;41.58;27.25;;;12.10;88.90;;;;;;5053646;28;20031;-74
2021/11/19 03:13:41;;;;;;;46.92;27.95;;;12.10;88.90;;;;;;5052951;28;20028;-75
2021/11/19 03:16:08;;;;;;;37.47;25.80;;;12.10;89.00;;;;;;5083376;28;20069;-70
2021/11/19 03:18:35;;;;;;;40.15;25.35;;;12.10;89.00;;;;;;5073425;28;20024;-70
2021/11/19 03:21:04;;;;;;;35.38;23.83;;;12.10;89.00;;;;;;5073025;28;20039;-69
2021/11/19 03:23:32;;;;;;;38.60;24.88;;;12.10;89.00;;;;;;5073334;28;20020;-70
2021/11/19 03:26:00;;;;;;;45.20;27.67;;;12.10;89.10;;;;;;5092048;28;20028;-70
2021/11/19 03:28:27;;;;;;;45.35;27.63;;;12.10;89.20;;;;;;5091470;28;20483;-68
2021/11/19 03:30:57;;;;;;;42.45;26.63;;;12.10;89.20;;;;;;5091310;28;20024;-69
2021/11/19 03:33:26;;;;;;;39.45;27.08;;;12.10;89.30;;;;;;5091576;28;20463;-70
2021/11/19 03:35:52;;;;;;;47.00;28.80;;;12.10;89.30;;;;;;5091076;28;20016;-69
2021/11/19 03:38:20;;;;;;;41.78;27.58;;;12.10;89.40;;;;;;5090159;28;20066;-69
2021/11/19 03:40:49;;;;;;;42.88;27.00;;;12.10;89.50;;;;;;5090946;28;20126;-69
2021/11/19 03:43:27;;;;;;;49.70;28.65;;;12.00;89.50;;;;;;5087740;28;20082;-69
2021/11/19 03:45:57;;;;;;;40.53;27.20;;;12.10;89.60;;;;;;5090906;28;20036;-69
2021/11/19 03:48:24;;;;;;;44.10;30.65;;;12.10;89.60;;;;;;5073102;28;20028;-69
2021/11/19 03:50:53;;;;;;;40.00;28.65;;;12.10;89.70;;;;;;5072849;28;20031;-72
2021/11/19 03:53:21;;;;;;;40.70;28.33;;;12.10;89.70;;;;;;5090850;28;20056;-73
2021/11/19 03:55:49;;;;;;;42.38;28.27;;;12.10;89.70;;;;;;5072756;28;20073;-73
2021/11/19 03:58:21;;;;;;;46.15;31.38;;;12.10;89.70;;;;;;5073225;28;20082;-73
2021/11/19 04:01:10;;;;;;;40.40;29.38;;;12.10;89.60;;;;;;5091084;28;20026;-73
2021/11/19 04:03:36;;;;;;;48.67;32.83;;;12.10;89.60;;;;;;5073012;28;20046;-73
2021/11/19 04:06:02;;;;;;;48.28;32.03;;;12.10;89.70;;;;;;5090247;28;20106;-73
2021/11/19 04:08:28;;;;;;;49.72;32.92;;;12.10;89.80;;;;;;5090240;28;20036;-73
2021/11/19 04:10:54;;;;;;;54.67;34.00;;;12.10;89.90;;;;;;5091289;28;20101;-73
2021/11/19 04:13:20;;;;;;;41.80;30.02;;;12.10;90.00;;;;;;5090529;28;20028;-73
2021/11/19 04:15:52;;;;;;;47.83;32.50;;;12.10;90.00;;;;;;5071939;28;20395;-73
2021/11/19 04:18:19;;;;;;;51.55;33.00;;;12.10;90.00;;;;;;5072219;28;20020;-73
2021/11/19 04:20:46;;;;;;;49.60;34.42;;;12.10;90.00;;;;;;5072366;28;20035;-73
2021/11/19 04:23:12;;;;;;;54.53;35.85;;;12.10;90.00;;;;;;5052115;28;20029;-73
2021/11/19 04:25:39;;;;;;;52.33;35.78;;;12.10;90.00;;;;;;5087180;28;20032;-73
2021/11/19 04:28:05;;;;;;;62.35;36.90;;;12.10;90.00;;;;;;5090393;28;20118;-74
2021/11/19 04:30:34;;;;;;;56.95;36.65;;;12.10;90.10;;;;;;5090439;28;20025;-73
2021/11/19 04:33:00;;;;;;;49.85;34.78;;;12.10;90.10;;;;;;5090097;28;20068;-73
2021/11/19 04:35:28;;;;;;;53.28;34.67;;;12.10;90.10;;;;;;5081788;28;20047;-73
2021/11/19 04:37:53;;;;;;;49.40;32.88;;;12.10;90.50;;;;;;5076742;28;20030;-73
2021/11/19 04:40:20;;;;;;;59.60;37.05;;;12.10;90.20;;;;;;5071641;28;20031;-73
2021/11/19 04:42:47;;;;;;;53.28;34.90;;;12.10;90.30;;;;;;5069374;28;20035;-73
2021/11/19 04:45:16;;;;;;;50.47;33.25;;;12.10;90.20;;;;;;5068553;28;20064;-73
2021/11/19 04:47:42;;;;;;;54.78;34.83;;;12.10;90.20;;;;;;5080478;28;20111;-73
2021/11/19 04:50:10;;;;;;;53.30;35.42;;;12.10;90.20;;;;;;5081887;28;20360;-74
2021/11/19 04:52:36;;;;;;;54.42;35.92;;;12.20;90.30;;;;;;5088391;28;20403;-73
2021/11/19 04:55:03;;;;;;;57.53;36.78;;;12.10;90.30;;;;;;5089587;28;20038;-73
2021/11/19 04:57:29;;;;;;;53.35;36.15;;;12.10;90.30;;;;;;5070936;28;20039;-74
2021/11/19 04:59:55;;;;;;;53.95;36.25;;;12.10;90.40;;;;;;5090050;28;20024;-73
2021/11/19 05:02:21;;;;;;;50.13;33.08;;;12.10;90.30;;;;;;5089567;28;20426;-73
2021/11/19 05:04:48;;;;;;;55.30;35.58;;;12.10;90.40;;;;;;5071721;28;20063;-73
2021/11/19 05:07:14;;;;;;;49.33;33.08;;;12.20;90.40;;;;;;5088409;28;20036;-73
2021/11/19 05:09:41;;;;;;;54.70;33.75;;;12.10;90.40;;;;;;5087938;28;20028;-69
2021/11/19 05:12:33;;;;;;;56.58;34.65;;;12.10;90.40;;;;;;5080357;28;20032;-73
2021/11/19 05:14:58;;;;;;;53.67;36.08;;;12.10;90.40;;;;;;5083345;28;20463;-73
2021/11/19 05:17:24;;;;;;;55.08;33.95;;;12.10;90.50;;;;;;5071152;28;20051;-72
2021/11/19 05:19:51;;;;;;;54.50;35.28;;;12.10;90.50;;;;;;5088119;28;20452;-70
2021/11/19 05:22:18;;;;;;;56.83;36.03;;;12.10;90.60;;;;;;5088126;28;20490;-69
2021/11/19 05:24:44;;;;;;;48.72;33.00;;;12.10;90.60;;;;;;5090353;28;20023;-69
2021/11/19 05:27:10;;;;;;;58.00;36.90;;;12.10;90.60;;;;;;5070644;28;20036;-69
2021/11/19 05:29:35;;;;;;;54.88;35.58;;;12.10;90.70;;;;;;5089656;28;20427;-69
2021/11/19 05:32:01;;;;;;;47.47;34.58;;;12.10;90.70;;;;;;5089288;28;20012;-70
2021/11/19 05:34:27;;;;;;;56.83;35.35;;;12.10;90.70;;;;;;5089222;28;20032;-70
2021/11/19 05:36:53;;;;;;;46.22;33.00;;;12.10;90.70;;;;;;5089185;28;20431;-72
2021/11/19 05:39:19;;;;;;;48.15;33.03;;;12.10;90.70;;;;;;5086257;28;20043;-73
2021/11/19 05:41:46;;;;;;;54.63;34.75;;;12.10;90.70;;;;;;5089373;28;20032;-73
2021/11/19 05:44:12;;;;;;;51.90;36.13;;;12.10;90.70;;;;;;5088937;28;20035;-73
2021/11/19 05:46:41;;;;;;;53.45;33.55;;;12.20;90.80;;;;;;5088278;28;20107;-72
2021/11/19 05:49:13;;;;;;;53.92;34.53;;;12.20;90.80;;;;;;5088696;28;20051;-73
2021/11/19 05:51:41;;;;;;;49.65;34.28;;;12.10;90.80;;;;;;5089206;28;20160;-73
2021/11/19 05:54:09;;;;;;;51.75;35.10;;;12.20;90.90;;;;;;5088905;28;20117;-73
2021/11/19 05:56:36;;;;;;;57.20;35.33;;;12.20;90.90;;;;;;5089222;28;20028;-72
2021/11/19 05:59:02;;;;;;;48.50;33.13;;;12.10;90.90;;;;;;5089113;28;20020;-73
2021/11/19 06:01:28;;;;;;;50.45;35.00;;;12.10;90.90;;;;;;5070208;28;20044;-69
2021/11/19 06:03:54;;;;;;;51.92;34.38;;;12.20;91.00;;;;;;5093458;28;20046;-69
2021/11/19 06:06:22;;;;;;;48.30;32.15;;;12.20;91.00;;;;;;5093134;28;20444;-69
2021/11/19 06:08:48;;;;;;;54.72;34.97;;;12.10;91.00;;;;;;5092047;28;20037;-69
2021/11/19 06:11:21;;;;;;;54.08;35.92;;;12.20;91.00;;;;;;5075120;28;20137;-69
2021/11/19 06:14:03;;;;;;;51.28;34.08;;;12.20;91.30;;;;;;5074905;28;20013;-68
2021/11/19 06:16:34;;;;;;;56.22;34.30;;;12.20;91.00;;;;;;5074412;28;20040;-68
2021/11/19 06:19:03;;;;;;;52.97;36.28;;;12.20;91.00;;;;;;5074029;28;20044;-68
2021/11/19 06:21:47;;;;;;;54.38;36.38;;;12.20;91.00;;;;;;5092995;28;20043;-69
2021/11/19 06:24:19;;;;;;;50.03;33.92;;;12.10;91.00;;;;;;5065902;28;20380;-74
2021/11/19 06:26:46;;;;;;;50.97;33.75;;;12.10;91.00;;;;;;5080930;28;20123;-69
2021/11/19 06:29:12;;;;;;;51.17;33.65;;;12.10;91.00;;;;;;5073924;28;20043;-68
2021/11/19 06:31:42;;;;;;;55.78;36.40;;;12.10;91.10;;;;;;5074742;28;20451;-68
2021/11/19 06:34:08;;;;;;;53.17;35.28;;;12.10;91.10;;;;;;5089127;28;20024;-74
2021/11/19 06:36:34;;;;;;;48.60;32.78;;;12.10;91.10;;;;;;5091620;28;20028;-74
2021/11/19 06:39:01;;;;;;;54.58;35.33;;;12.10;91.10;;;;;;5090227;28;20032;-73
2021/11/19 06:41:28;;;;;;;57.53;36.63;;;12.10;91.10;;;;;;5074331;28;20421;-74
2021/11/19 06:43:54;;;;;;;56.58;36.42;;;12.20;91.10;;;;;;5092102;28;20059;-69
2021/11/19 06:46:22;;;;;;;54.17;34.85;;;12.10;91.10;;;;;;5092431;28;20064;-68
2021/11/19 06:48:49;;;;;;;50.03;33.13;;;12.10;91.10;;;;;;5091839;28;20071;-69
2021/11/19 06:51:16;;;;;;;55.22;36.33;;;12.10;91.10;;;;;;5092510;28;20028;-69
2021/11/19 06:53:42;;;;;;;51.90;35.97;;;12.10;91.10;;;;;;5084650;28;20029;-68
2021/11/19 06:56:09;;;;;;;53.08;35.38;;;12.20;91.10;;;;;;5087943;28;20501;-68
2021/11/19 06:58:35;;;;;;;50.20;33.28;;;12.20;91.10;;;;;;5091388;28;20028;-68
2021/11/19 07:01:02;;;;;;;47.25;32.58;;;12.20;91.10;;;;;;5074231;28;20119;-69
2021/11/19 07:03:29;;;;;;;49.35;33.10;;;12.20;91.10;;;;;;5091719;28;20028;-68
2021/11/19 07:05:55;;;;;;;54.97;36.33;;;12.20;91.10;;;;;;5090115;28;20028;-68
2021/11/19 07:08:21;;;;;;;59.05;36.22;;;12.20;91.00;;;;;;5091589;28;20029;-69
2021/11/19 07:10:50;;;;;;;53.35;34.13;;;12.20;91.00;;;;;;5092261;28;20115;-68
2021/11/19 07:13:16;;;;;;;54.78;35.55;;;12.20;91.00;;;;;;5087722;28;20028;-68
2021/11/19 07:15:42;;;;;;;53.30;33.45;;;12.20;91.00;;;;;;5085228;28;20082;-77
2021/11/19 07:18:09;;;;;;;49.63;33.13;;;12.20;91.00;;;;;;5073268;28;20111;-70
2021/11/19 07:20:35;;;;;;;54.10;35.17;;;12.30;91.00;;;;;;5072800;28;20048;-70
2021/11/19 07:23:01;;;;;;;43.05;32.78;;;12.20;91.00;;;;;;5094509;28;20032;-72
2021/11/19 07:25:30;;;;;;;48.53;33.85;;;12.20;91.00;;;;;;5095574;28;20182;-72
2021/11/19 07:27:57;;;;;;;44.58;31.55;;;12.30;91.00;;;;;;5094234;28;20115;-73
2021/11/19 07:30:40;;;;;;;45.85;31.80;;;12.30;91.00;;;;;;5089708;28;21421;-72
2021/11/19 07:33:07;;;;;;;42.45;30.70;;;12.30;91.00;;;;;;5098488;28;20085;-76
2021/11/19 07:35:34;;;;;;;47.25;33.03;;;12.30;91.00;;;;;;5107196;28;20020;-70
2021/11/19 07:38:00;;;;;;;59.17;36.38;;;12.30;91.00;;;;;;5100394;28;20028;-71
2021/11/19 07:40:29;;;;;;;50.10;31.88;;;12.30;91.00;;;;;;5084366;28;20040;-70
2021/11/19 07:42:55;;;;;;;46.95;32.35;;;12.30;90.90;;;;;;5072745;28;20478;-70
2021/11/19 07:45:21;;;;;;;45.10;31.30;;;12.30;90.90;;;;;;5090042;28;20055;-71
2021/11/19 07:47:48;;;;;;;42.92;29.70;;;12.30;91.00;;;;;;5086788;28;20055;-72
2021/11/19 07:50:19;;;;;;;45.13;31.83;;;12.30;91.00;;;;;;5091370;28;20039;-72
2021/11/19 07:52:45;;;;;;;49.17;32.88;;;12.30;91.00;;;;;;5090223;28;20583;-72
2021/11/19 07:55:11;;;;;;;43.60;31.73;;;12.30;91.00;;;;;;5090280;28;20024;-72
2021/11/19 07:57:37;;;;;;;46.95;31.77;;;12.30;91.00;;;;;;5071047;28;20069;-72
2021/11/19 08:00:14;;;;;;;42.05;31.02;;;12.30;91.00;;;;;;5090305;28;20475;-72
2021/11/19 08:02:40;;;;;;;51.03;33.92;;;12.30;91.00;;;;;;5090137;28;20028;-73
2021/11/19 08:05:06;;;;;;;49.45;32.65;;;12.30;91.00;;;;;;5081822;28;20035;-73
2021/11/19 08:07:32;;;;;;;44.13;31.17;;;12.40;91.00;;;;;;5088952;28;20473;-72
2021/11/19 08:09:58;;;;;;;46.92;32.85;;;12.30;91.00;;;;;;5089900;28;20102;-72
2021/11/19 08:12:25;;;;;;;52.13;34.75;;;12.30;91.00;;;;;;5072379;28;20025;-72
2021/11/19 08:14:51;;;;;;;44.53;31.85;;;12.30;91.00;;;;;;5090156;28;20086;-72
2021/11/19 08:17:28;;;;;;;44.97;31.38;;;12.40;91.00;;;;;;5051429;28;20495;-72
2021/11/19 08:19:54;;;;;;;43.95;30.90;;;12.40;91.00;;;;;;5067777;28;20388;-72
2021/11/19 08:22:20;;;;;;;42.38;29.90;;;12.40;91.00;;;;;;5049822;28;20478;-72
2021/11/19 08:24:47;;;;;;;45.25;31.55;;;12.40;91.00;;;;;;5069501;28;20144;-73
2021/11/19 08:27:19;;;;;;;41.33;30.38;;;12.40;91.00;;;;;;5066809;28;20044;-72
2021/11/19 08:29:53;;;;;;;52.72;33.28;;;12.40;91.00;;;;;;5066377;28;20541;-72
2021/11/19 08:32:23;;;;;;;40.40;29.80;;;12.40;91.00;;;;;;5069759;28;20048;-72
2021/11/19 08:34:49;;;;;;;36.88;26.80;;;12.40;91.00;;;;;;5069990;28;20139;-72
2021/11/19 08:37:17;;;;;;;37.35;27.80;;;12.40;91.00;;;;;;5068979;28;20025;-72
2021/11/19 08:39:43;;;;;;;34.85;27.58;;;12.50;91.00;;;;;;5067905;28;20031;-72
2021/11/19 08:42:10;;;;;;;37.67;28.08;;;12.40;91.00;;;;;;5051724;28;20066;-72
2021/11/19 08:44:44;;;;;;;38.83;28.48;;;12.50;90.90;;;;;;5069662;28;20035;-72
2021/11/19 08:47:11;;;;;;;36.85;28.85;;;12.50;90.90;;;;;;5068550;28;20111;-72
2021/11/19 08:49:38;;;;;;;39.45;27.85;;;12.50;90.90;;;;;;5069742;28;20052;-72
2021/11/19 08:52:07;;;;;;;40.15;27.13;;;12.50;90.90;;;;;;5051827;28;20025;-72
2021/11/19 08:54:33;;;;;;;36.13;26.85;;;12.50;90.90;;;;;;5047476;28;20071;-72
2021/11/19 08:57:04;;;;;;;39.03;28.30;;;12.50;90.90;;;;;;5050473;28;20028;-72
2021/11/19 08:59:34;;;;;;;39.58;27.55;;;12.50;90.90;;;;;;5066218;28;20033;-72
2021/11/19 09:02:01;;;;;;;34.92;26.67;;;12.50;90.90;;;;;;5067584;28;20455;-72
2021/11/19 09:04:28;;;;;;;37.15;27.73;;;12.50;90.90;;;;;;5066309;28;20028;-72
2021/11/19 09:06:55;;;;;;;33.45;25.45;;;12.50;90.90;;;;;;5069675;28;20024;-72
2021/11/19 09:09:23;;;;;;;37.20;25.77;;;12.50;90.90;;;;;;5063197;28;20150;-72
2021/11/19 09:11:49;;;;;;;32.88;25.05;;;12.50;90.90;;;;;;5066060;28;20036;-72
2021/11/19 09:14:16;;;;;;;33.78;25.25;;;12.60;90.90;;;;;;5068766;28;20032;-72
2021/11/19 09:17:12;;;;;;;33.47;23.75;;;12.60;91.10;;;;;;5079386;28;20148;-72
2021/11/19 09:19:52;;;;;;;36.58;25.70;;;12.60;90.90;;;;;;5068067;28;20122;-72
2021/11/19 09:22:17;;;;;;;34.63;25.17;;;12.60;90.80;;;;;;5076404;28;20503;-73
2021/11/19 09:24:43;;;;;;;32.45;24.88;;;12.70;90.80;;;;;;5075945;28;20024;-72
2021/11/19 09:27:12;;;;;;;34.80;24.08;;;12.60;90.80;;;;;;5085857;28;20031;-73
2021/11/19 09:29:47;;;;;;;31.17;24.88;;;12.70;90.80;;;;;;5087007;28;20398;-73
2021/11/19 09:32:14;;;;;;;35.95;25.40;;;12.70;90.70;;;;;;5088645;28;20020;-73
2021/11/19 09:34:44;;;;;;;34.63;23.05;;;12.70;90.70;;;;;;5098250;28;20474;-73
2021/11/19 09:37:12;;;;;;;27.15;21.58;;;12.70;90.70;;;;;;5067710;28;20082;-72
2021/11/19 09:39:39;;;;;;;37.13;24.58;;;12.70;90.70;;;;;;5096795;28;20478;-72
2021/11/19 09:42:18;;;;;;;27.55;22.48;;;12.80;90.70;;;;;;5071011;28;20095;-72
2021/11/19 09:45:32;;;;;;;31.90;23.85;;;12.80;90.70;;;;;;5087435;28;20338;-72
2021/11/19 09:48:25;;;;;;;28.20;21.23;;;12.80;90.70;;;;;;5030526;28;20048;-73
2021/11/19 09:51:29;;;;;;;40.08;22.85;;;12.80;90.60;;;;;;5068833;28;20040;-73
2021/11/19 09:54:07;;;;;;;26.08;21.50;;;12.90;90.60;;;;;;5095870;28;20028;-73
2021/11/19 09:57:05;;;;;;;28.33;21.15;;;12.90;90.60;;;;;;5086701;28;20024;-74
2021/11/19 09:59:44;;;;;;;26.23;19.25;;;12.90;90.60;;;;;;5069036;28;20474;-73
2021/11/19 10:02:50;;;;;;;25.05;19.27;;;12.90;90.50;;;;;;5084807;28;20464;-73
2021/11/19 10:05:33;;;;;;;27.30;20.17;;;13.00;90.50;;;;;;5072965;28;20371;-73
2021/11/19 10:08:11;;;;;;;24.35;18.83;;;13.00;90.50;;;;;;5066162;28;20020;-73
2021/11/19 10:10:51;;;;;;;23.73;18.85;;;13.00;90.40;;;;;;5071016;28;20074;-73
2021/11/19 10:13:41;;;;;;;24.20;17.90;;;13.10;90.40;;;;;;5085335;28;20146;-73
2021/11/19 10:16:22;;;;;;;20.17;17.00;;;13.10;90.40;;;;;;5086669;28;20052;-74
2021/11/19 10:19:27;;;;;;;22.95;17.50;;;13.20;90.30;;;;;;5087462;28;20026;-73
2021/11/19 10:22:39;;;;;;;19.42;15.02;;;13.20;90.20;;;;;;5061523;28;20044;-74
2021/11/19 10:25:07;;;;;;;24.58;17.45;;;13.30;90.10;;;;;;4991327;28;20534;-74
2021/11/19 10:27:40;;;;;;;24.77;18.63;;;13.40;90.00;;;;;;5006297;28;20499;-73
2021/11/19 10:30:18;;;;;;;25.25;16.25;;;13.30;89.70;;;;;;5052387;28;20132;-74
2021/11/19 10:32:44;;;;;;;23.27;16.33;;;13.40;89.80;;;;;;5088573;28;20042;-73
2021/11/19 10:35:37;;;;;;;20.77;15.95;;;13.40;89.70;;;;;;5087587;28;20438;-74
2021/11/19 10:38:23;;;;;;;21.92;15.65;;;13.50;89.60;;;;;;5083289;28;20059;-73
2021/11/19 10:41:28;;;;;;;21.42;15.48;;;13.50;89.40;;;;;;5084970;28;20032;-73
2021/11/19 10:44:12;;;;;;;20.13;13.45;;;13.50;89.30;;;;;;5080263;28;20386;-73
2021/11/19 10:47:00;;;;;;;19.77;13.27;;;13.60;89.10;;;;;;5067658;28;20029;-73
2021/11/19 10:49:44;;;;;;;17.33;12.95;;;13.60;89.10;;;;;;5088352;28;20043;-73
2021/11/19 10:52:28;;;;;;;18.05;11.80;;;13.60;88.80;;;;;;5072969;28;20086;-72
2021/11/19 10:54:56;;;;;;;15.05;11.07;;;13.70;88.40;;;;;;5089541;28;20063;-73
2021/11/19 10:57:34;;;;;;;16.17;11.57;;;14.00;88.20;;;;;;5086552;28;20103;-73
2021/11/19 11:00:24;;;;;;;15.45;10.27;;;14.50;87.50;;;;;;5088903;28;20024;-72
2021/11/19 11:02:53;;;;;;;15.10;11.10;;;14.70;85.80;;;;;;5090567;28;20027;-72
2021/11/19 11:05:40;;;;;;;12.30;9.65;;;14.60;85.00;;;;;;5087220;28;20024;-71
2021/11/19 11:08:12;;;;;;;15.93;9.40;;;14.70;85.00;;;;;;5070371;28;20035;-74
2021/11/19 11:10:44;;;;;;;20.73;11.13;;;14.80;84.70;;;;;;5091297;28;20016;-72
2021/11/19 11:13:34;;;;;;;13.65;10.25;;;14.70;84.60;;;;;;5073072;28;20016;-71
2021/11/19 11:16:08;;;;;;;18.83;9.80;;;14.70;84.20;;;;;;5088541;28;20056;-75
2021/11/19 11:19:10;;;;;;;14.30;8.65;;;14.70;83.90;;;;;;5083105;28;20543;-72
2021/11/19 11:21:55;;;;;;;14.32;8.57;;;14.60;84.40;;;;;;5089282;28;20071;-71
2021/11/19 11:24:56;;;;;;;13.80;8.80;;;14.50;84.60;;;;;;5088606;28;20032;-72
2021/11/19 11:27:45;;;;;;;12.27;9.18;;;14.40;85.00;;;;;;5036013;28;20044;-72
2021/11/19 11:30:18;;;;;;;11.30;8.60;;;14.20;85.10;;;;;;5062334;28;20028;-74
2021/11/19 11:33:13;;;;;;;12.05;8.48;;;14.10;85.30;;;;;;5090887;28;20012;-71
2021/11/19 11:35:50;;;;;;;12.02;8.00;;;14.10;85.10;;;;;;5090979;28;20023;-75
2021/11/19 11:38:46;;;;;;;11.43;7.75;;;14.10;85.40;;;;;;5071544;28;20126;-75
2021/11/19 11:41:20;;;;;;;12.45;8.38;;;14.00;85.40;;;;;;5087908;28;20076;-75
2021/11/19 11:43:55;;;;;;;12.73;8.18;;;13.90;84.90;;;;;;5087048;28;20043;-71
2021/11/19 11:46:37;;;;;;;12.93;8.25;;;13.90;85.20;;;;;;5090616;28;20028;-71
2021/11/19 11:49:16;;;;;;;14.45;8.35;;;13.90;85.30;;;;;;5069343;28;20023;-71
2021/11/19 11:51:50;;;;;;;12.00;8.30;;;13.80;85.40;;;;;;5080628;28;20095;-75
2021/11/19 11:54:34;;;;;;;10.98;7.22;;;13.90;85.50;;;;;;5076535;28;20391;-74
2021/11/19 11:57:36;;;;;;;12.20;8.48;;;14.40;85.70;;;;;;5080233;28;20104;-75
2021/11/19 12:00:08;;;;;;;13.10;8.25;;;14.90;83.10;;;;;;5058515;28;20035;-75
2021/11/19 12:02:48;;;;;;;10.45;7.13;;;15.60;81.60;;;;;;5070151;28;20028;-75
2021/11/19 12:05:32;;;;;;;11.93;7.90;;;16.50;79.10;;;;;;5065876;28;20028;-75
2021/11/19 12:08:26;;;;;;;12.70;8.82;;;16.50;76.80;;;;;;5075293;28;20363;-75
2021/11/19 12:11:19;;;;;;;14.25;8.18;;;16.00;76.80;;;;;;5090431;28;20036;-72
2021/11/19 12:14:12;;;;;;;10.68;7.55;;;15.50;78.50;;;;;;5089882;28;20066;-71
2021/11/19 12:17:00;;;;;;;10.48;8.07;;;15.20;79.70;;;;;;5083690;28;20032;-72
2021/11/19 12:20:00;;;;;;;12.20;8.35;;;14.90;80.30;;;;;;5089272;28;20043;-71
2021/11/19 12:22:56;;;;;;;11.55;8.23;;;14.80;81.00;;;;;;5069751;28;20217;-71
2021/11/19 12:25:48;;;;;;;11.23;8.48;;;14.60;81.40;;;;;;5062506;28;20028;-71
2021/11/19 12:28:42;;;;;;;9.90;8.35;;;14.50;81.90;;;;;;5077223;28;20024;-71
2021/11/19 12:31:17;;;;;;;14.27;8.57;;;14.30;82.20;;;;;;5084590;28;20182;-71
2021/11/19 12:33:47;;;;;;;10.90;8.20;;;14.30;82.40;;;;;;5089879;28;20036;-72
2021/11/19 12:36:13;;;;;;;11.27;7.22;;;14.20;82.70;;;;;;5089689;28;20095;-72
2021/11/19 12:38:42;;;;;;;12.52;7.57;;;14.20;82.90;;;;;;5086860;28;20107;-71
2021/11/19 12:41:19;;;;;;;8.95;7.97;;;14.20;82.90;;;;;;5088127;28;20017;-71
2021/11/19 12:43:57;;;;;;;12.73;8.30;;;14.10;83.00;;;;;;5084116;28;20042;-72
2021/11/19 12:46:41;;;;;;;11.18;7.82;;;14.20;83.00;;;;;;5088944;28;20391;-71
2021/11/19 12:49:12;;;;;;;8.95;7.20;;;14.10;82.80;;;;;;5081579;28;20120;-71
2021/11/19 12:51:59;;;;;;;8.60;7.20;;;14.10;83.00;;;;;;5068177;28;20039;-71
2021/11/19 12:54:36;;;;;;;11.02;7.28;;;14.10;82.80;;;;;;5086592;28;20502;-71
2021/11/19 12:57:37;;;;;;;7.75;6.68;;;14.10;82.80;;;;;;5085686;28;20108;-72